Time;durP1;ratioP1;P1;durP2;ratioP2;P2;SDS_P1;SDS_P2;PMS_P1;PMS_P2;Temp;Humidity;BMP_temperature;BMP_pressure;BME280_temperature;BME280_humidity;BME280_pressure;Samples;Min_cycle;Max_cycle;Signal;HPM_P1;HPM_P2
2023/02/14 00:01:50;;;;;;;34.65;18.70;;;;;;;-0.10;70.41;100945.06;5059865;28;20063;-86
2023/02/14 00:04:16;;;;;;;35.90;19.23;;;;;;;-0.20;70.90;100947.81;5043763;28;20051;-86
2023/02/14 00:06:42;;;;;;;39.60;20.55;;;;;;;-0.27;70.65;100938.84;5060926;28;20402;-86
2023/02/14 00:09:14;;;;;;;44.75;21.42;;;;;;;-0.25;71.05;100965.97;5043418;28;20028;-86
2023/02/14 00:11:39;;;;;;;40.03;19.30;;;;;;;-0.25;70.64;100956.25;5044534;28;20020;-86
2023/02/14 00:16:49;;;;;;;33.05;17.95;;;;;;;-0.22;70.48;100960.38;5065815;28;20118;-86
2023/02/14 00:19:15;;;;;;;34.05;18.73;;;;;;;-0.29;70.27;100951.41;5059787;28;20024;-86
2023/02/14 00:21:41;;;;;;;37.55;20.00;;;;;;;-0.25;70.35;100940.34;5042799;28;20026;-86
2023/02/14 00:24:12;;;;;;;41.13;20.48;;;;;;;-0.19;70.71;100946.81;5064159;28;20106;-87
2023/02/14 00:26:38;;;;;;;42.37;22.87;;;;;;;-0.18;71.14;100935.25;5063701;28;20032;-86
2023/02/14 00:29:04;;;;;;;33.53;19.25;;;;;;;-0.10;70.28;100951.16;5071229;28;20265;-87
2023/02/14 00:31:30;;;;;;;39.28;19.25;;;;;;;-0.02;70.57;100947.72;5066184;28;20031;-86
2023/02/14 00:33:55;;;;;;;36.05;19.40;;;;;;;-0.07;69.73;100936.78;5066660;28;20173;-86
2023/02/14 00:36:21;;;;;;;35.85;18.83;;;;;;;-0.10;69.68;100923.88;5067015;28;20111;-86
2023/02/14 00:38:47;;;;;;;39.75;19.63;;;;;;;0.06;70.25;100945.06;5066805;28;20027;-86
2023/02/14 00:41:18;;;;;;;37.00;18.35;;;;;;;0.09;71.41;100931.53;5067023;28;20409;-86
2023/02/14 00:43:52;;;;;;;33.03;18.73;;;;;;;0.15;71.42;100930.06;5068328;28;20052;-86
2023/02/14 00:46:18;;;;;;;30.17;16.35;;;;;;;0.25;70.83;100932.56;5066463;28;20069;-86
2023/02/14 00:48:44;;;;;;;28.10;14.73;;;;;;;0.29;71.04;100924.13;5066890;28;20027;-86
2023/02/14 00:51:10;;;;;;;31.55;15.20;;;;;;;0.42;70.70;100936.91;5066829;28;20055;-86
2023/02/14 00:53:36;;;;;;;29.27;16.08;;;;;;;0.47;69.43;100947.84;5082789;28;20030;-86
2023/02/14 00:56:02;;;;;;;27.95;16.23;;;;;;;0.48;69.78;100933.59;5066303;28;20023;-86
2023/02/14 00:58:28;;;;;;;28.80;16.52;;;;;;;0.58;69.65;100934.28;5066869;28;20028;-86
2023/02/14 01:00:53;;;;;;;28.20;15.00;;;;;;;0.49;69.59;100915.88;5066466;28;20429;-86
2023/02/14 01:03:19;;;;;;;29.70;14.45;;;;;;;0.57;69.53;100922.00;5066447;28;20027;-86
2023/02/14 01:05:45;;;;;;;26.42;15.82;;;;;;;0.50;69.70;100907.78;5066394;28;20027;-86
2023/02/14 01:08:11;;;;;;;32.30;17.15;;;;;;;0.63;69.48;100914.41;5066322;28;20118;-86
2023/02/14 01:10:36;;;;;;;28.30;17.65;;;;;;;0.67;68.93;100908.59;5066328;28;20450;-87
2023/02/14 01:13:02;;;;;;;34.13;17.27;;;;;;;0.49;68.80;100892.03;5065524;28;20023;-86
2023/02/14 01:15:28;;;;;;;32.40;17.17;;;;;;;0.44;67.61;100887.22;5065923;28;20027;-86
2023/02/14 01:17:53;;;;;;;31.33;16.77;;;;;;;0.30;67.57;100883.41;5065264;28;20031;-86
2023/02/14 01:20:19;;;;;;;29.95;17.58;;;;;;;0.05;68.88;100877.22;5065701;28;20035;-86
2023/02/14 01:22:44;;;;;;;34.47;18.10;;;;;;;0.08;68.68;100876.06;5064644;28;20024;-86
2023/02/14 01:25:10;;;;;;;31.73;17.10;;;;;;;0.06;68.81;100892.13;5065012;28;20050;-86
2023/02/14 01:27:35;;;;;;;32.92;17.48;;;;;;;-0.12;69.19;100872.91;5066718;28;20020;-86
2023/02/14 01:30:01;;;;;;;38.70;20.38;;;;;;;-0.17;69.22;100878.66;5064993;28;20391;-86
2023/02/14 01:32:30;;;;;;;33.67;17.92;;;;;;;-0.36;69.84;100876.28;5065788;28;20023;-86
2023/02/14 01:34:55;;;;;;;28.77;16.10;;;;;;;-0.39;69.94;100881.88;5065389;28;20024;-86
2023/02/14 01:37:21;;;;;;;33.33;17.70;;;;;;;-0.43;70.81;100881.41;5064081;28;20034;-86
2023/02/14 01:39:46;;;;;;;33.20;18.35;;;;;;;-0.39;70.33;100858.91;5065035;28;20023;-86
2023/02/14 01:42:12;;;;;;;30.30;16.83;;;;;;;-0.35;70.50;100847.03;5065466;28;20474;-86
2023/02/14 01:44:37;;;;;;;31.90;17.65;;;;;;;-0.23;70.11;100858.97;5064756;28;20512;-87
2023/02/14 01:47:04;;;;;;;33.28;16.50;;;;;;;-0.32;70.01;100830.81;5099446;28;20565;-86
2023/02/14 01:49:38;;;;;;;33.83;17.15;;;;;;;-0.28;70.14;100813.63;5065426;28;20087;-86
2023/02/14 01:52:12;;;;;;;29.27;16.42;;;;;;;-0.33;70.35;100810.66;5065387;28;20035;-86
2023/02/14 01:54:40;;;;;;;33.30;18.17;;;;;;;-0.24;70.51;100824.72;5081870;28;20035;-86
2023/02/14 01:57:07;;;;;;;34.92;18.48;;;;;;;-0.28;70.07;100807.50;5065307;28;20477;-87
2023/02/14 01:59:39;;;;;;;36.47;18.60;;;;;;;-0.31;70.32;100810.47;5065369;28;20049;-87
2023/02/14 02:02:05;;;;;;;38.97;17.45;;;;;;;-0.48;70.78;100809.59;5065927;28;20489;-87
2023/02/14 02:04:41;;;;;;;32.47;17.70;;;;;;;-0.33;70.86;100796.56;5064671;28;20126;-86
2023/02/14 02:07:16;;;;;;;36.95;21.13;;;;;;;-0.42;71.20;100807.13;5065109;28;20015;-86
2023/02/14 02:09:56;;;;;;;38.92;19.70;;;;;;;-0.43;71.13;100805.47;5065002;28;20023;-86
2023/02/14 02:12:21;;;;;;;38.53;19.42;;;;;;;-0.49;71.15;100813.25;5081465;28;20042;-87
2023/02/14 02:14:47;;;;;;;39.15;20.90;;;;;;;-0.53;71.74;100809.25;5065036;28;20027;-86
2023/02/14 02:17:31;;;;;;;35.08;19.48;;;;;;;-0.42;71.18;100801.84;5081589;28;20032;-87
2023/02/14 02:20:31;;;;;;;40.45;19.45;;;;;;;-0.45;71.00;100809.28;5098125;28;20063;-86
2023/02/14 02:23:21;;;;;;;37.75;20.65;;;;;;;-0.51;71.20;100810.75;5098057;28;20024;-87
2023/02/14 02:26:25;;;;;;;35.58;18.92;;;;;;;-0.54;70.57;100815.53;5097954;28;20024;-86
2023/02/14 02:29:23;;;;;;;31.83;17.67;;;;;;;-0.68;71.02;100798.47;5097673;28;20136;-86
2023/02/14 02:32:11;;;;;;;34.67;18.60;;;;;;;-0.55;71.01;100804.13;5083699;28;20083;-86
2023/02/14 02:35:14;;;;;;;30.75;18.85;;;;;;;-0.56;70.72;100791.03;5097840;28;20030;-86
2023/02/14 02:38:12;;;;;;;36.58;18.65;;;;;;;-0.59;71.01;100778.97;5096838;28;20032;-86
2023/02/14 02:40:47;;;;;;;34.30;17.70;;;;;;;-0.61;71.01;100791.53;5073722;28;20035;-87
2023/02/14 02:43:42;;;;;;;32.58;18.90;;;;;;;-0.71;70.71;100761.75;5098710;28;20046;-86
2023/02/14 02:55:19;;;;;;;33.70;18.75;;;;;;;-0.78;71.65;100780.06;5100678;28;20088;-86
2023/02/14 02:57:45;;;;;;;30.23;16.95;;;;;;;-0.83;71.29;100785.00;5064664;28;20031;-86
2023/02/14 03:00:11;;;;;;;34.60;18.98;;;;;;;-0.80;71.65;100789.16;5064271;28;20512;-86
2023/02/14 03:05:24;;;;;;;34.20;18.65;;;;;;;-0.80;71.09;100768.84;5086561;28;20035;-86
2023/02/14 03:07:50;;;;;;;38.38;18.98;;;;;;;-0.93;71.13;100769.28;5064131;28;20027;-86
2023/02/14 03:10:19;;;;;;;27.63;17.65;;;;;;;-1.07;71.34;100756.66;5063868;28;20028;-86
2023/02/14 03:13:23;;;;;;;31.67;18.35;;;;;;;-1.02;71.78;100771.06;5080373;28;20028;-87
2023/02/14 03:16:14;;;;;;;37.58;19.60;;;;;;;-1.13;72.25;100768.69;5082702;28;20541;-87
2023/02/14 03:22:27;;;;;;;35.92;18.17;;;;;;;-1.17;72.14;100748.84;5070428;28;20644;-87
2023/02/14 03:25:25;;;;;;;31.40;16.77;;;;;;;-1.09;72.11;100754.16;5062430;28;20493;-87
2023/02/14 03:28:00;;;;;;;37.70;18.70;;;;;;;-1.12;71.63;100743.91;5038985;28;20226;-86
2023/02/14 03:30:30;;;;;;;33.70;19.00;;;;;;;-1.06;71.84;100751.22;5060829;28;20028;-86
2023/02/14 03:33:01;;;;;;;40.58;21.45;;;;;;;-1.15;72.20;100735.47;5076870;28;20024;-86
2023/02/14 03:35:31;;;;;;;31.15;18.73;;;;;;;-1.08;71.88;100750.56;5060607;28;20108;-86
2023/02/14 03:38:03;;;;;;;34.45;19.40;;;;;;;-1.04;71.86;100749.25;5076899;28;20049;-86
2023/02/14 03:40:56;;;;;;;36.67;19.42;;;;;;;-1.16;71.91;100721.44;5076179;28;20451;-86
2023/02/14 03:43:43;;;;;;;37.53;21.35;;;;;;;-1.08;71.98;100716.19;5063403;28;20032;-86
2023/02/14 03:46:22;;;;;;;32.75;17.25;;;;;;;-1.06;72.12;100722.16;5060784;28;20024;-86
2023/02/14 03:48:47;;;;;;;32.67;18.20;;;;;;;-0.98;71.57;100733.72;5061261;28;20492;-86
2023/02/14 03:51:13;;;;;;;31.52;17.88;;;;;;;-1.17;71.91;100713.66;5059605;28;20028;-85
2023/02/14 03:53:40;;;;;;;32.30;19.35;;;;;;;-1.25;72.08;100725.84;5043898;28;20059;-87
2023/02/14 03:56:13;;;;;;;33.13;17.27;;;;;;;-1.14;72.01;100723.91;5044739;28;20032;-86
2023/02/14 03:58:42;;;;;;;33.15;18.60;;;;;;;-1.15;71.82;100717.78;5069987;28;20418;-86
2023/02/14 04:01:25;;;;;;;34.63;18.55;;;;;;;-1.13;71.94;100728.22;5067485;28;20023;-86
2023/02/14 04:03:52;;;;;;;34.25;19.77;;;;;;;-1.27;72.63;100711.13;5069370;27;20023;-86
2023/02/14 04:06:18;;;;;;;42.05;20.48;;;;;;;-1.32;71.98;100705.50;5067058;28;20063;-87
2023/02/14 04:08:44;;;;;;;37.58;18.95;;;;;;;-1.35;72.12;100704.03;5066247;28;20027;-86
2023/02/14 04:11:09;;;;;;;34.45;18.95;;;;;;;-1.23;71.85;100696.63;5063910;28;20046;-87
2023/02/14 04:13:35;;;;;;;36.38;18.02;;;;;;;-1.30;71.41;100692.97;5079686;28;20047;-96
2023/02/14 04:16:01;;;;;;;34.05;18.83;;;;;;;-1.16;71.92;100699.44;5071043;28;20414;-94
2023/02/14 04:21:12;;;;;;;31.63;16.80;;;;;;;-1.11;71.51;100682.13;5090922;28;20146;-93
2023/02/14 04:23:37;;;;;;;33.22;18.25;;;;;;;-0.96;71.23;100692.91;5069309;28;20474;-94
2023/02/14 04:26:03;;;;;;;35.83;18.08;;;;;;;-1.05;71.20;100659.53;5067231;28;20032;-94
2023/02/14 04:28:29;;;;;;;40.00;18.77;;;;;;;-1.09;71.17;100652.91;5068041;28;20020;-94
2023/02/14 04:30:55;;;;;;;36.90;19.83;;;;;;;-0.99;71.48;100658.88;5067902;28;20024;-94
2023/02/14 04:33:20;;;;;;;39.88;18.88;;;;;;;-1.11;70.87;100654.88;5067990;28;20043;-95
2023/02/14 04:35:47;;;;;;;34.72;18.25;;;;;;;-1.02;71.15;100670.63;5069496;28;20032;-96
2023/02/14 04:38:13;;;;;;;39.00;19.75;;;;;;;-1.00;71.28;100675.72;5069144;28;20039;-94
2023/02/14 04:40:38;;;;;;;43.03;20.15;;;;;;;-1.22;70.66;100653.38;5069061;28;20039;-95
2023/02/14 04:43:06;;;;;;;34.17;18.08;;;;;;;-1.03;70.72;100673.41;5069331;28;20391;-96
2023/02/14 04:45:31;;;;;;;35.00;17.77;;;;;;;-1.10;70.71;100659.16;5068422;28;20072;-94
2023/02/14 04:48:13;;;;;;;27.40;17.55;;;;;;;-1.14;70.28;100640.19;5072506;28;20027;-96
2023/02/14 04:50:41;;;;;;;31.15;19.63;;;;;;;-1.09;70.41;100634.41;5087876;28;20040;-96
2023/02/14 04:53:07;;;;;;;36.85;19.30;;;;;;;-1.06;70.53;100637.56;5071170;28;20036;-96
2023/02/14 04:55:32;;;;;;;37.90;19.67;;;;;;;-1.09;70.40;100639.69;5070323;28;20031;-96
2023/02/14 04:57:58;;;;;;;37.08;20.13;;;;;;;-1.19;70.49;100625.78;5084862;28;20027;-95
2023/02/14 05:00:24;;;;;;;45.03;21.48;;;;;;;-1.02;70.34;100683.84;5069873;28;20028;-96
2023/02/14 05:02:49;;;;;;;38.22;20.33;;;;;;;-1.30;70.76;100653.34;5069563;28;20024;-96
2023/02/14 05:05:18;;;;;;;40.00;20.38;;;;;;;-1.19;71.19;100658.31;5068930;28;20050;-96
2023/02/14 05:07:46;;;;;;;36.05;19.52;;;;;;;-1.07;70.70;100661.50;5082358;28;20034;-86
2023/02/14 05:10:12;;;;;;;42.67;22.75;;;;;;;-1.17;70.97;100668.75;5063402;28;20032;-87
2023/02/14 05:12:37;;;;;;;35.75;20.65;;;;;;;-1.14;70.24;100660.47;5068420;28;20016;-87
2023/02/14 05:15:03;;;;;;;39.78;21.33;;;;;;;-0.88;70.88;100686.84;5061981;28;20031;-87
2023/02/14 05:17:28;;;;;;;37.30;22.38;;;;;;;-0.71;70.58;100698.28;5058451;28;20020;-87
2023/02/14 05:19:54;;;;;;;40.33;23.52;;;;;;;-0.67;70.42;100691.66;5082867;27;20032;-88
2023/02/14 05:22:19;;;;;;;39.83;22.08;;;;;;;-0.59;70.69;100691.69;5094204;27;20046;-87
2023/02/14 05:24:45;;;;;;;42.15;24.10;;;;;;;-0.54;71.18;100705.28;5089404;28;20027;-87
2023/02/14 05:27:10;;;;;;;50.15;27.38;;;;;;;-0.51;71.25;100694.34;5080206;27;20190;-88
2023/02/14 05:29:36;;;;;;;48.75;26.38;;;;;;;-0.28;70.61;100712.22;5073969;27;20087;-88
2023/02/14 05:32:01;;;;;;;39.03;23.73;;;;;;;-0.36;70.92;100681.28;5066552;27;20019;-88
2023/02/14 05:34:27;;;;;;;35.33;18.88;;;;;;;-0.23;70.49;100707.25;5086418;28;20028;-88
2023/02/14 05:36:53;;;;;;;31.40;17.48;;;;;;;-0.14;70.68;100716.06;5058182;27;20052;-87
2023/02/14 05:39:19;;;;;;;25.80;16.00;;;;;;;-0.18;70.24;100704.16;5079631;27;20023;-88
2023/02/14 05:41:45;;;;;;;29.00;17.08;;;;;;;-0.09;70.13;100708.44;5064533;28;20053;-88
2023/02/14 05:44:10;;;;;;;28.55;16.27;;;;;;;-0.14;70.05;100682.47;5065249;28;20051;-89
2023/02/14 05:46:35;;;;;;;30.10;17.73;;;;;;;0.03;69.47;100706.28;5073882;27;20039;-89
2023/02/14 05:49:02;;;;;;;35.83;17.38;;;;;;;0.00;69.71;100691.56;5076620;27;20123;-88
2023/02/14 05:51:27;;;;;;;31.75;16.65;;;;;;;0.09;70.18;100682.59;5094260;28;20034;-90
2023/02/14 05:53:53;;;;;;;37.40;16.98;;;;;;;0.32;69.73;100703.91;5083560;27;20035;-90
2023/02/14 05:56:18;;;;;;;33.92;17.70;;;;;;;0.40;69.61;100701.25;5069350;27;20023;-90
2023/02/14 05:58:44;;;;;;;37.25;19.70;;;;;;;0.40;69.84;100714.50;5096606;27;20026;-91
2023/02/14 06:01:09;;;;;;;33.25;18.00;;;;;;;0.68;69.21;100750.38;5070786;27;20108;-90
2023/02/14 06:03:35;;;;;;;39.28;18.33;;;;;;;0.57;68.39;100706.53;5090122;28;20024;-88
2023/02/14 06:06:00;;;;;;;31.92;17.83;;;;;;;0.75;68.15;100716.91;5067944;28;20035;-89
2023/02/14 06:08:26;;;;;;;36.22;19.52;;;;;;;0.92;67.79;100702.59;5079490;27;20031;-88
2023/02/14 06:10:51;;;;;;;32.45;18.60;;;;;;;1.13;68.03;100727.69;5087071;27;20106;-87
2023/02/14 06:13:17;;;;;;;34.40;19.25;;;;;;;1.35;67.46;100734.03;5086403;27;20026;-88
2023/02/14 06:15:43;;;;;;;39.65;20.35;;;;;;;1.33;66.06;100725.41;5086840;27;20019;-88
2023/02/14 06:18:08;;;;;;;33.00;19.40;;;;;;;1.29;65.58;100708.22;5086379;27;20031;-88
2023/02/14 06:20:34;;;;;;;34.78;19.52;;;;;;;1.40;65.42;100721.06;5077513;27;20024;-89
2023/02/14 06:23:00;;;;;;;42.88;23.23;;;;;;;1.32;65.26;100703.38;5076023;27;20476;-89
2023/02/14 06:25:26;;;;;;;44.60;23.20;;;;;;;1.26;65.61;100706.72;5067645;27;20032;-89
2023/02/14 06:27:58;;;;;;;36.00;21.85;;;;;;;1.31;65.77;100699.06;5070009;28;20035;-92
2023/02/14 06:30:26;;;;;;;48.97;23.17;;;;;;;1.33;65.10;100686.47;5069868;28;20031;-92
2023/02/14 06:32:51;;;;;;;40.67;21.98;;;;;;;1.46;65.61;100709.75;5069612;28;20055;-88
2023/02/14 06:35:27;;;;;;;;;;;;;;;;;;;;;
2023/02/14 06:38:04;;;;;;;47.70;23.65;;;;;;;1.45;65.69;100702.78;5095009;28;20083;-94
2023/02/14 06:40:41;;;;;;;46.03;22.38;;;;;;;1.67;65.86;100726.88;5082316;28;20031;-93
2023/02/14 06:43:30;;;;;;;40.13;20.58;;;;;;;1.58;65.92;100705.69;5084670;28;20027;-92
2023/02/14 06:45:56;;;;;;;35.33;20.70;;;;;;;1.56;65.44;100701.56;5123862;28;20128;-93
2023/02/14 06:49:01;;;;;;;37.65;22.98;;;;;;;1.71;65.02;100720.22;5089025;28;20036;-87
2023/02/14 06:54:53;;;;;;;54.10;27.42;;;;;;;1.87;65.76;100725.41;5089308;28;20043;-90
2023/02/14 06:57:19;;;;;;;43.45;23.77;;;;;;;1.89;65.38;100723.41;5052664;28;20103;-88
2023/02/14 06:59:44;;;;;;;39.60;22.38;;;;;;;2.04;65.42;100718.13;5053671;28;20019;-87
2023/02/14 07:02:19;;;;;;;52.25;25.58;;;;;;;2.03;65.17;100727.09;5048195;28;20247;-87
2023/02/14 07:04:44;;;;;;;46.42;25.55;;;;;;;1.93;65.59;100716.72;5059111;28;20115;-87
2023/02/14 07:20:41;;;;;;;51.28;31.95;;;;;;;3.15;61.48;100700.44;5760547;22;11934161;-94
2023/02/14 07:23:06;;;;;;;50.95;27.70;;;;;;;3.12;61.97;100698.16;6184551;23;20094;-94
2023/02/14 07:25:32;;;;;;;42.97;26.85;;;;;;;3.03;62.51;100723.25;6182921;23;20004;-94
2023/02/14 07:27:57;;;;;;;48.45;25.77;;;;;;;2.94;63.32;100719.03;6182259;23;19996;-95
2023/02/14 07:30:29;;;;;;;46.38;25.85;;;;;;;3.16;62.19;100733.22;6191351;23;19996;-96
2023/02/14 07:32:55;;;;;;;;;;;;;;;3.33;62.41;100747.16;6234179;23;20003;-93
2023/02/14 07:35:23;;;;;;;45.92;25.20;;;;;;;3.26;62.28;100731.09;6232436;23;19904;-96
2023/02/14 07:37:50;;;;;;;48.72;25.90;;;;;;;3.19;62.66;100738.97;6218591;23;20056;-95
2023/02/14 07:40:16;;;;;;;51.53;27.30;;;;;;;3.11;62.52;100704.50;6216832;23;20000;-92
2023/02/14 07:42:42;;;;;;;50.17;28.23;;;;;;;3.00;62.54;100697.00;6189801;23;20006;-93
2023/02/14 07:45:08;;;;;;;55.17;26.63;;;;;;;3.20;61.58;100711.38;6211949;23;20034;-93
2023/02/14 07:47:39;;;;;;;46.47;28.40;;;;;;;3.17;62.35;100690.44;6209183;23;20004;-94
2023/02/14 07:50:08;;;;;;;52.33;27.77;;;;;;;3.43;62.94;100739.69;6212157;23;20000;-95
2023/02/14 07:52:34;;;;;;;43.80;23.50;;;;;;;3.35;62.13;100724.63;6191251;23;20063;-94
2023/02/14 07:55:06;;;;;;;26.25;14.93;;;;;;;3.61;61.63;100723.25;6186342;23;20006;-96
2023/02/14 07:57:35;;;;;;;36.45;21.10;;;;;;;3.83;61.50;100726.78;6215514;23;20001;-91
2023/02/14 08:00:22;;;;;;;21.50;12.10;;;;;;;4.16;60.14;100739.56;6176746;23;19992;-85
2023/02/14 08:02:48;;;;;;;19.73;10.93;;;;;;;4.24;60.24;100734.91;6205368;23;20011;-95
2023/02/14 08:05:19;;;;;;;25.10;10.85;;;;;;;4.31;59.47;100718.16;6191697;23;20000;-95
2023/02/14 08:07:47;;;;;;;20.20;10.68;;;;;;;4.56;58.13;100730.00;6184545;23;20346;-94
2023/02/14 08:10:12;;;;;;;20.75;11.38;;;;;;;4.54;57.94;100709.91;6186111;23;20011;-93
2023/02/14 08:12:57;;;;;;;24.58;10.20;;;;;;;4.96;57.32;100718.72;6183993;23;20000;-95
2023/02/14 08:18:13;;;;;;;16.52;8.50;;;;;;;5.37;54.65;100717.88;6217771;22;20007;-94
2023/02/14 08:20:40;;;;;;;21.15;11.48;;;;;;;5.52;55.70;100715.88;6172853;23;20024;-95
2023/02/14 08:23:10;;;;;;;18.00;9.45;;;;;;;5.45;53.96;100705.16;6175908;23;20006;-94
2023/02/14 08:25:36;;;;;;;17.92;9.88;;;;;;;5.66;54.54;100719.38;6200271;23;20056;-95
2023/02/14 08:28:06;;;;;;;15.68;8.65;;;;;;;5.64;54.86;100727.63;6208444;23;20004;-93
2023/02/14 08:30:34;;;;;;;15.95;8.38;;;;;;;5.86;53.91;100703.38;6209623;23;20019;-95
2023/02/14 08:33:05;;;;;;;15.32;8.50;;;;;;;5.64;52.66;100697.38;6203621;23;20008;-96
2023/02/14 08:35:37;;;;;;;15.70;8.27;;;;;;;5.84;52.85;100710.78;6253430;23;20058;-93
2023/02/14 08:38:03;;;;;;;15.18;8.30;;;;;;;5.75;52.73;100685.28;6178771;23;20564;-94
2023/02/14 08:40:29;;;;;;;12.50;7.80;;;;;;;5.74;53.64;100713.03;6176231;23;20354;-94
2023/02/14 08:42:55;;;;;;;12.93;8.20;;;;;;;5.57;53.93;100686.69;6198789;23;19996;-93
2023/02/14 08:45:20;;;;;;;17.80;9.68;;;;;;;5.68;53.64;100687.94;6198942;23;20074;-92
2023/02/14 08:47:46;;;;;;;16.05;8.60;;;;;;;5.75;52.61;100699.47;6198927;23;20000;-92
2023/02/14 08:50:13;;;;;;;17.15;9.15;;;;;;;5.56;53.21;100697.56;6200324;23;20007;-94
2023/02/14 08:52:39;;;;;;;16.63;8.70;;;;;;;5.58;53.25;100679.50;6173647;23;20000;-93
2023/02/14 08:55:05;;;;;;;18.13;8.77;;;;;;;5.50;53.56;100682.34;6177656;23;20000;-94
2023/02/14 08:57:33;;;;;;;19.67;8.48;;;;;;;5.61;53.61;100679.09;6198608;23;20453;-94
2023/02/14 08:59:59;;;;;;;15.77;8.90;;;;;;;5.63;53.29;100677.88;6198225;23;20000;-95
2023/02/14 09:02:24;;;;;;;14.35;8.23;;;;;;;5.65;52.92;100680.34;6251502;23;20000;-93
2023/02/14 09:04:50;;;;;;;19.38;9.65;;;;;;;5.47;53.82;100673.72;6250533;23;19996;-95
2023/02/14 09:07:16;;;;;;;13.63;8.13;;;;;;;5.54;52.95;100675.59;6225458;23;20006;-93
2023/02/14 09:09:41;;;;;;;16.42;9.63;;;;;;;5.47;52.00;100663.03;6198558;23;20027;-92
2023/02/14 09:12:09;;;;;;;14.10;8.77;;;;;;;5.37;52.77;100657.25;6223193;23;20103;-92
2023/02/14 09:14:40;;;;;;;18.58;9.35;;;;;;;5.44;53.94;100657.31;6200461;23;19999;-94
2023/02/14 09:17:07;;;;;;;16.45;9.07;;;;;;;5.65;53.34;100677.66;6253949;23;20000;-95
2023/02/14 09:19:33;;;;;;;18.52;9.25;;;;;;;5.60;53.44;100666.75;6212608;23;20016;-94
2023/02/14 09:21:58;;;;;;;16.35;8.57;;;;;;;5.83;53.13;100675.22;6201263;23;20026;-95
2023/02/14 09:24:27;;;;;;;15.98;8.68;;;;;;;5.98;52.60;100664.34;6181065;23;20004;-95
2023/02/14 09:26:53;;;;;;;14.88;8.38;;;;;;;6.26;52.00;100677.47;6208409;23;19996;-95
2023/02/14 09:29:21;;;;;;;16.42;8.90;;;;;;;6.41;50.83;100663.91;6227278;23;20011;-94
2023/02/14 09:31:47;;;;;;;13.98;8.38;;;;;;;6.33;51.13;100660.59;6179204;23;19989;-95
2023/02/14 09:36:57;;;;;;;12.82;8.35;;;;;;;6.52;51.74;100649.06;6211758;23;20055;-94
2023/02/14 09:39:23;;;;;;;17.25;8.63;;;;;;;6.47;50.83;100633.63;6208620;23;20055;-96
2023/02/14 09:42:34;;;;;;;16.10;9.00;;;;;;;7.00;50.53;100666.59;6182480;23;20118;-95
2023/02/14 09:45:26;;;;;;;14.00;8.43;;;;;;;6.89;49.42;100633.28;6227644;23;20008;-94
2023/02/14 09:48:10;;;;;;;15.93;8.95;;;;;;;6.96;50.08;100644.75;6205509;23;20000;-95
2023/02/14 09:50:51;;;;;;;20.63;9.93;;;;;;;7.15;49.53;100632.31;6188068;23;20384;-95
2023/02/14 09:53:22;;;;;;;13.68;8.40;;;;;;;7.41;48.67;100655.44;6206354;23;19996;-95
2023/02/14 09:59:28;;;;;;;13.57;8.43;;;;;;;7.22;48.85;100643.81;6255680;23;20123;-95
2023/02/14 10:02:08;;;;;;;16.63;8.25;;;;;;;7.41;48.54;100654.63;6231804;23;20004;-96
2023/02/14 10:04:41;;;;;;;14.75;8.55;;;;;;;7.65;48.06;100661.06;6183157;23;20025;-95
2023/02/14 10:07:32;;;;;;;13.80;8.43;;;;;;;7.82;47.90;100656.81;6216636;23;19996;-95
2023/02/14 10:10:14;;;;;;;14.57;8.82;;;;;;;8.02;47.67;100678.09;6246475;23;20015;-95
2023/02/14 10:12:46;;;;;;;14.70;8.02;;;;;;;7.53;47.82;100636.78;6229210;23;20014;-92
2023/02/14 10:15:21;;;;;;;16.98;9.35;;;;;;;7.72;47.35;100677.09;6230728;23;20023;-95
2023/02/14 10:17:54;;;;;;;13.40;8.57;;;;;;;7.86;47.14;100667.91;6202701;23;20023;-94
2023/02/14 10:20:30;;;;;;;16.17;9.40;;;;;;;7.77;48.22;100635.19;6228334;23;20088;-93
2023/02/14 10:23:03;;;;;;;15.85;8.43;;;;;;;7.74;47.17;100641.00;6234397;23;20020;-94
2023/02/14 10:25:38;;;;;;;20.67;9.30;;;;;;;7.71;46.98;100643.28;6203484;23;20000;-93
2023/02/14 10:28:04;;;;;;;17.50;8.68;;;;;;;7.82;47.39;100656.81;6257842;23;20000;-94
2023/02/14 10:30:40;;;;;;;17.77;8.25;;;;;;;7.91;47.17;100652.00;6201976;23;20011;-95
2023/02/14 10:33:16;;;;;;;13.35;8.50;;;;;;;8.06;47.22;100654.34;6229435;23;20000;-96
2023/02/14 10:35:49;;;;;;;19.98;10.00;;;;;;;7.98;47.58;100638.53;6227870;23;19996;-95
2023/02/14 10:38:28;;;;;;;15.73;9.02;;;;;;;8.04;47.52;100633.09;6204784;23;20007;-95
2023/02/14 10:41:24;;;;;;;14.55;8.77;;;;;;;8.14;47.42;100642.50;6204130;23;20111;-94
2023/02/14 10:44:15;;;;;;;14.88;8.27;;;;;;;8.33;47.67;100654.91;6229168;23;19996;-94
2023/02/14 10:46:58;;;;;;;16.98;9.95;;;;;;;8.28;46.98;100652.09;6254996;23;20053;-95
2023/02/14 10:50:12;;;;;;;15.30;9.48;;;;;;;8.10;46.68;100644.81;6253106;23;20083;-93
2023/02/14 10:53:17;;;;;;;17.23;8.65;;;;;;;8.11;47.35;100638.38;6214437;23;20012;-96
2023/02/14 10:55:56;;;;;;;16.83;8.93;;;;;;;8.01;47.49;100625.50;6254655;23;19992;-96
2023/02/14 10:58:40;;;;;;;18.08;9.57;;;;;;;7.88;47.64;100615.69;6205268;23;20000;-94
2023/02/14 11:01:11;;;;;;;17.83;9.32;;;;;;;7.97;47.76;100618.94;6256495;23;20022;-95
2023/02/14 11:03:41;;;;;;;18.88;10.50;;;;;;;7.90;47.60;100610.94;6174769;23;20007;-93
2023/02/14 11:06:08;;;;;;;15.90;9.52;;;;;;;8.07;47.24;100607.69;6224724;23;20011;-94
2023/02/14 11:08:37;;;;;;;20.25;10.20;;;;;;;7.97;47.93;100612.72;6200132;23;20012;-92
2023/02/14 11:11:32;;;;;;;14.88;9.82;;;;;;;7.95;47.34;100604.09;6201048;23;20007;-95
2023/02/14 11:13:57;;;;;;;20.90;10.02;;;;;;;7.94;47.49;100597.09;6207019;23;19996;-95
2023/02/14 11:16:34;;;;;;;16.65;9.82;;;;;;;7.98;47.87;100604.47;6201669;23;19996;-96
2023/02/14 11:19:14;;;;;;;15.60;9.65;;;;;;;8.08;47.64;100620.88;6179316;23;20003;-94
2023/02/14 11:21:44;;;;;;;21.92;10.00;;;;;;;7.88;47.74;100596.09;6252462;23;20000;-95
2023/02/14 11:24:40;;;;;;;16.60;10.15;;;;;;;7.98;48.29;100588.38;6202177;23;19997;-94
2023/02/14 11:27:08;;;;;;;22.98;10.57;;;;;;;8.12;48.71;100610.53;6229002;23;20008;-95
2023/02/14 11:29:41;;;;;;;15.93;9.80;;;;;;;7.79;49.07;100574.13;6256458;23;19996;-95
2023/02/14 11:32:14;;;;;;;18.15;10.50;;;;;;;7.72;48.22;100578.72;6181821;23;20012;-95
2023/02/14 11:35:02;;;;;;;17.88;9.55;;;;;;;8.05;47.78;100607.09;6201046;23;19996;-94
2023/02/14 11:37:55;;;;;;;16.13;10.00;;;;;;;8.17;47.76;100580.34;6204341;23;20434;-95
2023/02/14 11:40:24;;;;;;;17.88;9.52;;;;;;;8.18;47.51;100590.88;6195197;23;20009;-96
2023/02/14 11:42:49;;;;;;;18.23;10.82;;;;;;;8.07;47.48;100562.94;6252857;23;20076;-94
2023/02/14 11:45:36;;;;;;;15.57;10.13;;;;;;;7.79;47.40;100560.72;6197550;23;19996;-94
2023/02/14 11:48:20;;;;;;;16.95;10.15;;;;;;;8.09;47.46;100582.31;6227254;23;20004;-95
2023/02/14 11:51:07;;;;;;;14.07;9.30;;;;;;;7.88;48.41;100534.44;6204254;23;20000;-94
2023/02/14 11:53:54;;;;;;;14.43;9.07;;;;;;;8.14;48.01;100562.84;6182215;23;20000;-95
2023/02/14 11:56:20;;;;;;;17.08;9.82;;;;;;;7.90;47.46;100533.16;6227819;23;20004;-95
2023/02/14 11:58:58;;;;;;;16.70;9.70;;;;;;;8.27;47.70;100553.81;6183692;23;20004;-92
2023/02/14 12:01:29;;;;;;;16.58;9.45;;;;;;;8.10;47.11;100557.09;6232854;23;20115;-96
2023/02/14 12:03:58;;;;;;;18.98;9.95;;;;;;;8.00;46.85;100529.16;6231661;23;20071;-96
2023/02/14 12:06:32;;;;;;;14.50;9.30;;;;;;;7.85;47.94;100508.88;6184530;23;20070;-94
2023/02/14 12:09:28;;;;;;;17.77;10.23;;;;;;;8.24;46.85;100538.19;6181929;23;20006;-94
2023/02/14 12:12:14;;;;;;;12.80;8.70;;;;;;;8.31;46.69;100536.22;6237374;23;20032;-93
2023/02/14 12:14:50;;;;;;;21.20;9.48;;;;;;;8.06;47.51;100504.94;6212104;23;20016;-95
2023/02/14 12:17:34;;;;;;;17.83;10.63;;;;;;;8.23;47.33;100515.06;6212999;23;19996;-96
2023/02/14 12:20:15;;;;;;;17.10;9.93;;;;;;;8.37;47.65;100529.16;6207820;23;20016;-95
2023/02/14 12:23:06;;;;;;;18.42;9.77;;;;;;;8.23;47.55;100534.66;6206961;23;20457;-95
2023/02/14 12:25:46;;;;;;;15.73;10.30;;;;;;;8.14;47.24;100514.56;6236513;23;20087;-95